sensor_id;sensor_type;location;lat;lon;timestamp;P1;P2;P0
76784;PMS7003;66893;44.316;0.092;2024-03-23T00:54:54;3.00;3.00;2.00
76784;PMS7003;66893;44.316;0.092;2024-03-23T00:57:20;3.00;3.00;3.00
76784;PMS7003;66893;44.316;0.092;2024-03-23T00:59:45;3.00;3.00;2.75
76784;PMS7003;66893;44.316;0.092;2024-03-23T01:02:11;4.00;3.00;2.50
76784;PMS7003;66893;44.316;0.092;2024-03-23T01:04:36;3.75;3.00;2.25
76784;PMS7003;66893;44.316;0.092;2024-03-23T01:07:01;4.00;4.00;2.75
76784;PMS7003;66893;44.316;0.092;2024-03-23T01:09:27;2.00;2.00;1.00
76784;PMS7003;66893;44.316;0.092;2024-03-23T01:11:52;2.50;2.50;2.25
76784;PMS7003;66893;44.316;0.092;2024-03-23T01:14:17;7.00;2.50;2.00
76784;PMS7003;66893;44.316;0.092;2024-03-23T01:16:43;4.50;4.00;3.00
76784;PMS7003;66893;44.316;0.092;2024-03-23T01:19:08;3.25;3.25;3.00
76784;PMS7003;66893;44.316;0.092;2024-03-23T01:21:33;3.00;3.00;3.00
76784;PMS7003;66893;44.316;0.092;2024-03-23T01:23:59;3.25;3.00;2.00
76784;PMS7003;66893;44.316;0.092;2024-03-23T01:26:24;3.00;3.00;3.00
76784;PMS7003;66893;44.316;0.092;2024-03-23T01:28:49;3.50;3.00;2.00
76784;PMS7003;66893;44.316;0.092;2024-03-23T01:31:15;4.00;4.00;3.00
76784;PMS7003;66893;44.316;0.092;2024-03-23T01:33:41;3.50;2.75;2.25
76784;PMS7003;66893;44.316;0.092;2024-03-23T01:36:06;4.00;4.00;3.00
76784;PMS7003;66893;44.316;0.092;2024-03-23T01:38:31;4.50;2.75;2.00
76784;PMS7003;66893;44.316;0.092;2024-03-23T01:40:57;4.25;4.25;2.75
76784;PMS7003;66893;44.316;0.092;2024-03-23T01:43:22;4.25;3.50;2.50
76784;PMS7003;66893;44.316;0.092;2024-03-23T01:45:48;5.75;2.00;2.00
76784;PMS7003;66893;44.316;0.092;2024-03-23T01:48:13;3.25;3.00;2.50
76784;PMS7003;66893;44.316;0.092;2024-03-23T01:50:38;4.25;3.00;3.00
76784;PMS7003;66893;44.316;0.092;2024-03-23T01:53:04;4.25;4.25;3.00
76784;PMS7003;66893;44.316;0.092;2024-03-23T01:55:32;3.00;3.00;2.75
76784;PMS7003;66893;44.316;0.092;2024-03-23T01:57:57;4.00;4.00;2.75
76784;PMS7003;66893;44.316;0.092;2024-03-23T02:00:22;2.25;2.25;2.00
76784;PMS7003;66893;44.316;0.092;2024-03-23T02:02:48;4.00;4.00;3.00
76784;PMS7003;66893;44.316;0.092;2024-03-23T02:05:13;4.00;3.25;3.00
76784;PMS7003;66893;44.316;0.092;2024-03-23T02:07:39;2.25;2.25;2.00
76784;PMS7003;66893;44.316;0.092;2024-03-23T02:10:06;3.75;3.00;2.25
76784;PMS7003;66893;44.316;0.092;2024-03-23T02:12:31;2.75;2.50;2.00
76784;PMS7003;66893;44.316;0.092;2024-03-23T02:14:56;5.50;3.00;2.25
76784;PMS7003;66893;44.316;0.092;2024-03-23T02:17:21;2.25;2.25;2.00
76784;PMS7003;66893;44.316;0.092;2024-03-23T02:19:47;2.50;2.50;2.00
76784;PMS7003;66893;44.316;0.092;2024-03-23T02:22:12;3.00;2.00;1.75
76784;PMS7003;66893;44.316;0.092;2024-03-23T02:24:37;3.00;3.00;2.00
76784;PMS7003;66893;44.316;0.092;2024-03-23T02:27:03;3.75;3.75;3.00
76784;PMS7003;66893;44.316;0.092;2024-03-23T02:29:28;4.50;4.00;3.00
76784;PMS7003;66893;44.316;0.092;2024-03-23T02:31:54;2.00;2.00;2.00
76784;PMS7003;66893;44.316;0.092;2024-03-23T02:34:19;4.75;2.50;2.00
76784;PMS7003;66893;44.316;0.092;2024-03-23T02:36:44;2.00;2.00;1.75
76784;PMS7003;66893;44.316;0.092;2024-03-23T02:39:09;2.50;2.50;2.00
76784;PMS7003;66893;44.316;0.092;2024-03-23T02:41:35;3.00;2.00;2.00
76784;PMS7003;66893;44.316;0.092;2024-03-23T02:44:00;3.50;2.50;1.75
76784;PMS7003;66893;44.316;0.092;2024-03-23T02:46:26;2.25;2.00;2.00
76784;PMS7003;66893;44.316;0.092;2024-03-23T02:48:51;2.00;2.00;1.25
76784;PMS7003;66893;44.316;0.092;2024-03-23T02:51:16;2.50;2.00;2.00
76784;PMS7003;66893;44.316;0.092;2024-03-23T02:53:42;3.00;3.00;2.75
76784;PMS7003;66893;44.316;0.092;2024-03-23T02:56:07;4.00;3.25;3.00
76784;PMS7003;66893;44.316;0.092;2024-03-23T02:58:33;0.00;0.00;0.00
76784;PMS7003;66893;44.316;0.092;2024-03-23T03:00:58;3.00;3.00;2.25
76784;PMS7003;66893;44.316;0.092;2024-03-23T03:03:24;4.00;3.00;2.00
76784;PMS7003;66893;44.316;0.092;2024-03-23T03:05:54;3.25;3.00;2.00
76784;PMS7003;66893;44.316;0.092;2024-03-23T03:08:21;3.00;2.00;2.00
76784;PMS7003;66893;44.316;0.092;2024-03-23T03:10:49;2.25;2.25;2.00
76784;PMS7003;66893;44.316;0.092;2024-03-23T03:13:14;3.50;3.00;2.50
76784;PMS7003;66893;44.316;0.092;2024-03-23T03:15:42;3.00;3.00;3.00
76784;PMS7003;66893;44.316;0.092;2024-03-23T03:18:08;4.75;3.00;2.00
76784;PMS7003;66893;44.316;0.092;2024-03-23T03:20:33;3.50;3.00;2.00
76784;PMS7003;66893;44.316;0.092;2024-03-23T03:22:59;4.00;3.00;3.00
76784;PMS7003;66893;44.316;0.092;2024-03-23T03:25:25;2.50;2.50;2.00
76784;PMS7003;66893;44.316;0.092;2024-03-23T03:27:50;3.00;3.00;2.00
76784;PMS7003;66893;44.316;0.092;2024-03-23T03:30:15;5.00;2.25;2.00
76784;PMS7003;66893;44.316;0.092;2024-03-23T03:32:41;3.00;2.00;2.00
76784;PMS7003;66893;44.316;0.092;2024-03-23T03:35:06;2.75;2.50;2.00
76784;PMS7003;66893;44.316;0.092;2024-03-23T03:37:32;2.00;2.00;2.00
76784;PMS7003;66893;44.316;0.092;2024-03-23T03:39:57;3.50;3.00;2.00
76784;PMS7003;66893;44.316;0.092;2024-03-23T03:42:22;1.00;1.00;1.00
76784;PMS7003;66893;44.316;0.092;2024-03-23T03:44:48;3.00;2.75;2.00
76784;PMS7003;66893;44.316;0.092;2024-03-23T03:47:13;1.00;1.00;1.00
76784;PMS7003;66893;44.316;0.092;2024-03-23T03:49:38;3.25;1.50;1.00
76784;PMS7003;66893;44.316;0.092;2024-03-23T03:52:04;1.00;1.00;0.25
76784;PMS7003;66893;44.316;0.092;2024-03-23T03:54:29;2.00;2.00;1.25
76784;PMS7003;66893;44.316;0.092;2024-03-23T03:56:54;1.50;0.75;0.75
76784;PMS7003;66893;44.316;0.092;2024-03-23T03:59:19;0.25;0.00;0.00
76784;PMS7003;66893;44.316;0.092;2024-03-23T04:01:45;0.50;0.00;0.00
76784;PMS7003;66893;44.316;0.092;2024-03-23T04:04:10;1.75;1.75;1.00
76784;PMS7003;66893;44.316;0.092;2024-03-23T04:06:36;3.00;1.00;1.00
76784;PMS7003;66893;44.316;0.092;2024-03-23T04:09:01;3.25;3.25;3.00
76784;PMS7003;66893;44.316;0.092;2024-03-23T04:11:27;4.00;4.00;2.50
76784;PMS7003;66893;44.316;0.092;2024-03-23T04:13:52;4.75;3.00;2.00
76784;PMS7003;66893;44.316;0.092;2024-03-23T04:16:51;3.25;1.25;1.25
76784;PMS7003;66893;44.316;0.092;2024-03-23T04:19:09;2.75;2.00;1.00
76784;PMS7003;66893;44.316;0.092;2024-03-23T04:21:36;1.25;1.00;0.00
76784;PMS7003;66893;44.316;0.092;2024-03-23T04:24:01;2.00;2.00;1.25
76784;PMS7003;66893;44.316;0.092;2024-03-23T04:26:26;4.00;2.00;1.75
76784;PMS7003;66893;44.316;0.092;2024-03-23T04:28:52;3.25;2.25;2.00
76784;PMS7003;66893;44.316;0.092;2024-03-23T04:31:17;3.00;2.50;2.00
76784;PMS7003;66893;44.316;0.092;2024-03-23T04:33:42;4.75;2.00;1.00
76784;PMS7003;66893;44.316;0.092;2024-03-23T04:36:07;1.50;1.00;1.00
76784;PMS7003;66893;44.316;0.092;2024-03-23T04:38:33;1.00;1.00;1.00
76784;PMS7003;66893;44.316;0.092;2024-03-23T04:40:59;3.50;2.00;1.25
76784;PMS7003;66893;44.316;0.092;2024-03-23T04:43:27;7.00;1.25;1.00
76784;PMS7003;66893;44.316;0.092;2024-03-23T04:45:53;3.00;0.75;0.00
76784;PMS7003;66893;44.316;0.092;2024-03-23T04:48:22;1.00;1.00;1.00
76784;PMS7003;66893;44.316;0.092;2024-03-23T04:50:48;1.50;1.50;0.50
76784;PMS7003;66893;44.316;0.092;2024-03-23T04:53:14;1.00;1.00;0.00
76784;PMS7003;66893;44.316;0.092;2024-03-23T04:55:40;1.75;1.00;0.00
76784;PMS7003;66893;44.316;0.092;2024-03-23T04:58:06;1.00;1.00;0.00
76784;PMS7003;66893;44.316;0.092;2024-03-23T05:00:31;1.25;0.00;0.00
76784;PMS7003;66893;44.316;0.092;2024-03-23T05:02:56;0.00;0.00;0.00
76784;PMS7003;66893;44.316;0.092;2024-03-23T05:05:22;0.00;0.00;0.00
76784;PMS7003;66893;44.316;0.092;2024-03-23T05:07:47;0.00;0.00;0.00
76784;PMS7003;66893;44.316;0.092;2024-03-23T05:10:12;0.25;0.00;0.00
76784;PMS7003;66893;44.316;0.092;2024-03-23T05:12:38;1.00;0.00;0.00
76784;PMS7003;66893;44.316;0.092;2024-03-23T05:15:04;2.50;0.00;0.00
76784;PMS7003;66893;44.316;0.092;2024-03-23T05:17:30;1.00;1.00;1.00
76784;PMS7003;66893;44.316;0.092;2024-03-23T05:19:56;1.00;0.25;0.00
76784;PMS7003;66893;44.316;0.092;2024-03-23T05:22:22;1.00;1.00;0.00
76784;PMS7003;66893;44.316;0.092;2024-03-23T05:24:47;0.50;0.50;0.25
76784;PMS7003;66893;44.316;0.092;2024-03-23T05:27:12;0.00;0.00;0.00
76784;PMS7003;66893;44.316;0.092;2024-03-23T05:29:38;2.25;0.25;0.00
76784;PMS7003;66893;44.316;0.092;2024-03-23T05:32:03;2.00;0.75;0.00
76784;PMS7003;66893;44.316;0.092;2024-03-23T05:34:28;1.75;0.00;0.00
76784;PMS7003;66893;44.316;0.092;2024-03-23T05:36:54;1.00;1.00;1.00
76784;PMS7003;66893;44.316;0.092;2024-03-23T05:39:19;2.00;0.00;0.00
76784;PMS7003;66893;44.316;0.092;2024-03-23T05:41:47;1.75;1.75;0.25
76784;PMS7003;66893;44.316;0.092;2024-03-23T05:44:12;2.25;0.25;0.25
76784;PMS7003;66893;44.316;0.092;2024-03-23T05:46:37;0.50;0.50;0.25
76784;PMS7003;66893;44.316;0.092;2024-03-23T05:49:03;0.00;0.00;0.00
76784;PMS7003;66893;44.316;0.092;2024-03-23T05:51:28;1.50;1.00;0.50
76784;PMS7003;66893;44.316;0.092;2024-03-23T05:53:53;1.50;1.50;1.25
76784;PMS7003;66893;44.316;0.092;2024-03-23T05:56:19;1.75;1.00;0.75
76784;PMS7003;66893;44.316;0.092;2024-03-23T05:58:45;2.75;2.50;1.00
76784;PMS7003;66893;44.316;0.092;2024-03-23T06:01:11;3.75;2.00;1.00
76784;PMS7003;66893;44.316;0.092;2024-03-23T06:03:37;4.00;2.00;2.00
76784;PMS7003;66893;44.316;0.092;2024-03-23T06:06:03;10.00;6.00;3.50
76784;PMS7003;66893;44.316;0.092;2024-03-23T06:08:29;10.00;5.00;4.00
76784;PMS7003;66893;44.316;0.092;2024-03-23T06:10:54;7.25;5.50;4.00
76784;PMS7003;66893;44.316;0.092;2024-03-23T06:13:20;16.00;6.25;4.00
76784;PMS7003;66893;44.316;0.092;2024-03-23T06:15:48;8.25;8.00;4.25
76784;PMS7003;66893;44.316;0.092;2024-03-23T06:18:14;10.25;7.50;5.00
76784;PMS7003;66893;44.316;0.092;2024-03-23T06:20:39;8.25;6.50;4.00
76784;PMS7003;66893;44.316;0.092;2024-03-23T06:23:05;8.50;8.00;4.50
76784;PMS7003;66893;44.316;0.092;2024-03-23T06:25:30;8.50;6.00;4.00
76784;PMS7003;66893;44.316;0.092;2024-03-23T06:27:56;9.00;7.25;3.75
76784;PMS7003;66893;44.316;0.092;2024-03-23T06:30:21;5.00;4.75;3.00
76784;PMS7003;66893;44.316;0.092;2024-03-23T06:32:46;8.50;6.00;3.25
76784;PMS7003;66893;44.316;0.092;2024-03-23T06:35:12;4.00;3.75;2.25
76784;PMS7003;66893;44.316;0.092;2024-03-23T06:37:37;5.00;4.00;3.50
76784;PMS7003;66893;44.316;0.092;2024-03-23T06:40:04;6.00;5.00;3.25
76784;PMS7003;66893;44.316;0.092;2024-03-23T06:42:32;7.25;4.25;2.25
76784;PMS7003;66893;44.316;0.092;2024-03-23T06:44:57;4.25;3.50;2.00
76784;PMS7003;66893;44.316;0.092;2024-03-23T06:47:22;5.50;3.00;2.00
76784;PMS7003;66893;44.316;0.092;2024-03-23T06:49:48;5.25;3.00;2.00
76784;PMS7003;66893;44.316;0.092;2024-03-23T06:52:13;6.00;3.00;2.00
76784;PMS7003;66893;44.316;0.092;2024-03-23T06:54:38;5.00;3.00;2.00
76784;PMS7003;66893;44.316;0.092;2024-03-23T06:57:04;4.00;2.00;1.75
76784;PMS7003;66893;44.316;0.092;2024-03-23T06:59:29;3.75;1.75;1.00
76784;PMS7003;66893;44.316;0.092;2024-03-23T07:01:54;5.00;3.00;1.00
76784;PMS7003;66893;44.316;0.092;2024-03-23T07:04:19;2.00;2.00;1.00
76784;PMS7003;66893;44.316;0.092;2024-03-23T07:06:45;3.75;2.00;1.00
76784;PMS7003;66893;44.316;0.092;2024-03-23T07:09:10;1.50;1.50;1.00
76784;PMS7003;66893;44.316;0.092;2024-03-23T07:11:36;1.00;1.00;0.00
76784;PMS7003;66893;44.316;0.092;2024-03-23T07:14:01;2.50;1.00;0.75
76784;PMS7003;66893;44.316;0.092;2024-03-23T07:16:27;4.75;2.75;2.00
76784;PMS7003;66893;44.316;0.092;2024-03-23T07:18:53;3.00;2.00;1.25
76784;PMS7003;66893;44.316;0.092;2024-03-23T07:21:18;3.50;2.00;1.00
76784;PMS7003;66893;44.316;0.092;2024-03-23T07:23:44;3.00;2.00;1.00
76784;PMS7003;66893;44.316;0.092;2024-03-23T07:26:14;2.00;2.00;1.00
76784;PMS7003;66893;44.316;0.092;2024-03-23T07:28:40;2.00;2.00;1.00
76784;PMS7003;66893;44.316;0.092;2024-03-23T07:31:12;2.00;1.00;1.00
76784;PMS7003;66893;44.316;0.092;2024-03-23T07:33:45;1.00;0.25;0.25
76784;PMS7003;66893;44.316;0.092;2024-03-23T07:36:11;2.25;2.25;1.75
76784;PMS7003;66893;44.316;0.092;2024-03-23T07:38:36;2.00;1.00;0.50
76784;PMS7003;66893;44.316;0.092;2024-03-23T07:41:02;1.00;1.00;1.00
76784;PMS7003;66893;44.316;0.092;2024-03-23T07:43:27;2.75;2.25;1.50
76784;PMS7003;66893;44.316;0.092;2024-03-23T07:45:53;2.50;1.00;1.00
76784;PMS7003;66893;44.316;0.092;2024-03-23T07:48:18;0.00;0.00;0.00
76784;PMS7003;66893;44.316;0.092;2024-03-23T07:50:44;1.00;1.00;1.00
76784;PMS7003;66893;44.316;0.092;2024-03-23T07:53:09;3.00;2.00;1.00
76784;PMS7003;66893;44.316;0.092;2024-03-23T07:55:34;3.00;2.00;1.00
76784;PMS7003;66893;44.316;0.092;2024-03-23T07:58:00;2.00;2.00;1.50
76784;PMS7003;66893;44.316;0.092;2024-03-23T08:00:25;4.00;2.75;2.00
76784;PMS7003;66893;44.316;0.092;2024-03-23T08:02:53;2.50;2.25;1.75
76784;PMS7003;66893;44.316;0.092;2024-03-23T08:05:19;2.50;2.50;1.50
76784;PMS7003;66893;44.316;0.092;2024-03-23T08:07:44;4.25;1.50;1.00
76784;PMS7003;66893;44.316;0.092;2024-03-23T08:10:09;2.00;2.00;2.00
76784;PMS7003;66893;44.316;0.092;2024-03-23T08:12:35;2.25;1.75;1.00
76784;PMS7003;66893;44.316;0.092;2024-03-23T08:15:00;2.75;1.25;1.00
76784;PMS7003;66893;44.316;0.092;2024-03-23T08:17:26;4.00;2.00;2.00
76784;PMS7003;66893;44.316;0.092;2024-03-23T08:19:51;2.00;2.00;1.00
76784;PMS7003;66893;44.316;0.092;2024-03-23T08:22:17;4.00;2.00;1.50
76784;PMS7003;66893;44.316;0.092;2024-03-23T08:24:43;1.00;1.00;0.25
76784;PMS7003;66893;44.316;0.092;2024-03-23T08:27:08;3.25;2.50;2.00
76784;PMS7003;66893;44.316;0.092;2024-03-23T08:29:33;1.00;1.00;1.00
76784;PMS7003;66893;44.316;0.092;2024-03-23T08:31:58;2.00;2.00;2.00
76784;PMS7003;66893;44.316;0.092;2024-03-23T08:34:25;4.50;4.00;2.00
76784;PMS7003;66893;44.316;0.092;2024-03-23T08:36:51;3.00;2.25;2.00
76784;PMS7003;66893;44.316;0.092;2024-03-23T08:39:20;2.00;2.00;1.25
76784;PMS7003;66893;44.316;0.092;2024-03-23T08:41:45;8.00;3.75;2.00
76784;PMS7003;66893;44.316;0.092;2024-03-23T08:44:11;6.75;4.00;3.00
76784;PMS7003;66893;44.316;0.092;2024-03-23T08:46:36;5.00;3.00;2.25
76784;PMS7003;66893;44.316;0.092;2024-03-23T08:49:01;9.25;3.00;2.00
76784;PMS7003;66893;44.316;0.092;2024-03-23T08:51:27;10.00;8.50;5.50
76784;PMS7003;66893;44.316;0.092;2024-03-23T08:53:52;10.00;8.75;5.75
76784;PMS7003;66893;44.316;0.092;2024-03-23T08:56:17;8.00;6.75;5.50
76784;PMS7003;66893;44.316;0.092;2024-03-23T08:58:43;9.25;6.00;4.50
76784;PMS7003;66893;44.316;0.092;2024-03-23T09:03:33;7.50;6.50;5.00
76784;PMS7003;66893;44.316;0.092;2024-03-23T09:06:00;6.00;6.00;4.00
76784;PMS7003;66893;44.316;0.092;2024-03-23T09:08:26;7.25;5.25;3.25
76784;PMS7003;66893;44.316;0.092;2024-03-23T09:10:51;6.75;6.00;5.00
76784;PMS7003;66893;44.316;0.092;2024-03-23T09:13:17;10.25;8.25;6.50
76784;PMS7003;66893;44.316;0.092;2024-03-23T09:16:00;12.50;10.25;6.25
76784;PMS7003;66893;44.316;0.092;2024-03-23T09:18:25;9.25;8.75;5.50
76784;PMS7003;66893;44.316;0.092;2024-03-23T09:20:51;9.75;9.25;6.00
76784;PMS7003;66893;44.316;0.092;2024-03-23T09:23:18;6.00;5.25;4.00
76784;PMS7003;66893;44.316;0.092;2024-03-23T09:25:43;8.25;5.00;4.00
76784;PMS7003;66893;44.316;0.092;2024-03-23T09:28:08;10.75;5.00;4.00
76784;PMS7003;66893;44.316;0.092;2024-03-23T09:30:34;6.75;5.00;3.50
76784;PMS7003;66893;44.316;0.092;2024-03-23T09:33:00;4.00;4.00;3.00
76784;PMS7003;66893;44.316;0.092;2024-03-23T09:35:26;7.50;6.50;4.50
76784;PMS7003;66893;44.316;0.092;2024-03-23T09:37:51;4.50;4.50;3.00
76784;PMS7003;66893;44.316;0.092;2024-03-23T09:40:16;6.50;4.00;3.00
76784;PMS7003;66893;44.316;0.092;2024-03-23T09:42:42;3.25;3.00;2.75
76784;PMS7003;66893;44.316;0.092;2024-03-23T09:45:21;5.50;4.00;2.75
76784;PMS7003;66893;44.316;0.092;2024-03-23T09:47:47;3.00;3.00;2.00
76784;PMS7003;66893;44.316;0.092;2024-03-23T09:50:13;4.00;2.00;2.00
76784;PMS7003;66893;44.316;0.092;2024-03-23T09:52:38;3.00;3.00;2.00
76784;PMS7003;66893;44.316;0.092;2024-03-23T09:55:04;3.25;3.00;2.00
76784;PMS7003;66893;44.316;0.092;2024-03-23T09:57:29;3.00;2.00;1.25
76784;PMS7003;66893;44.316;0.092;2024-03-23T09:59:55;5.00;3.00;2.75
76784;PMS7003;66893;44.316;0.092;2024-03-23T10:02:21;1.00;1.00;1.00
76784;PMS7003;66893;44.316;0.092;2024-03-23T10:04:47;2.50;2.50;1.75
76784;PMS7003;66893;44.316;0.092;2024-03-23T10:07:14;4.00;3.00;2.00
76784;PMS7003;66893;44.316;0.092;2024-03-23T10:09:39;3.50;1.25;1.00
76784;PMS7003;66893;44.316;0.092;2024-03-23T10:12:09;3.75;3.00;2.00
76784;PMS7003;66893;44.316;0.092;2024-03-23T10:14:34;4.25;2.00;1.00
76784;PMS7003;66893;44.316;0.092;2024-03-23T10:17:19;4.00;2.00;2.00
76784;PMS7003;66893;44.316;0.092;2024-03-23T10:19:48;1.75;1.25;1.00
76784;PMS7003;66893;44.316;0.092;2024-03-23T10:22:21;1.50;1.00;1.00
76784;PMS7003;66893;44.316;0.092;2024-03-23T10:24:49;3.00;1.25;1.00
76784;PMS7003;66893;44.316;0.092;2024-03-23T10:27:15;2.75;1.75;1.00
76784;PMS7003;66893;44.316;0.092;2024-03-23T10:29:42;2.50;2.50;1.50
76784;PMS7003;66893;44.316;0.092;2024-03-23T10:32:08;2.00;2.00;1.00
76784;PMS7003;66893;44.316;0.092;2024-03-23T10:34:34;4.25;2.00;2.00
76784;PMS7003;66893;44.316;0.092;2024-03-23T10:37:00;2.00;2.00;1.00
76784;PMS7003;66893;44.316;0.092;2024-03-23T10:39:26;3.75;2.00;1.00
76784;PMS7003;66893;44.316;0.092;2024-03-23T10:41:52;3.00;2.00;2.00
76784;PMS7003;66893;44.316;0.092;2024-03-23T10:44:18;1.00;1.00;1.00
76784;PMS7003;66893;44.316;0.092;2024-03-23T10:46:44;1.50;1.50;1.00
76784;PMS7003;66893;44.316;0.092;2024-03-23T10:49:10;2.00;0.00;0.00
76784;PMS7003;66893;44.316;0.092;2024-03-23T10:51:35;3.00;1.00;1.00
76784;PMS7003;66893;44.316;0.092;2024-03-23T10:54:01;2.75;1.00;1.00
76784;PMS7003;66893;44.316;0.092;2024-03-23T10:56:29;2.25;1.50;1.25
76784;PMS7003;66893;44.316;0.092;2024-03-23T10:58:58;4.00;2.00;1.00
76784;PMS7003;66893;44.316;0.092;2024-03-23T11:01:25;2.75;2.00;1.25
76784;PMS7003;66893;44.316;0.092;2024-03-23T11:03:51;1.00;1.00;0.25
76784;PMS7003;66893;44.316;0.092;2024-03-23T11:11:58;1.00;1.00;1.00
76784;PMS7003;66893;44.316;0.092;2024-03-23T11:14:38;1.00;1.00;0.00
76784;PMS7003;66893;44.316;0.092;2024-03-23T11:17:10;1.00;1.00;0.00
76784;PMS7003;66893;44.316;0.092;2024-03-23T11:19:36;1.00;1.00;0.00
76784;PMS7003;66893;44.316;0.092;2024-03-23T11:22:01;1.00;1.00;1.00
76784;PMS7003;66893;44.316;0.092;2024-03-23T11:24:27;2.25;2.00;1.00
76784;PMS7003;66893;44.316;0.092;2024-03-23T11:26:52;1.25;1.25;0.50
76784;PMS7003;66893;44.316;0.092;2024-03-23T11:29:17;2.25;0.75;0.25
76784;PMS7003;66893;44.316;0.092;2024-03-23T11:31:47;0.00;0.00;0.00
76784;PMS7003;66893;44.316;0.092;2024-03-23T11:34:12;1.00;1.00;1.00
76784;PMS7003;66893;44.316;0.092;2024-03-23T11:36:38;1.75;1.75;0.75
76784;PMS7003;66893;44.316;0.092;2024-03-23T11:39:16;1.00;0.50;0.25
76784;PMS7003;66893;44.316;0.092;2024-03-23T11:41:45;2.00;0.25;0.00
76784;PMS7003;66893;44.316;0.092;2024-03-23T11:44:17;3.00;0.00;0.00
76784;PMS7003;66893;44.316;0.092;2024-03-23T11:46:43;2.00;0.50;0.00
76784;PMS7003;66893;44.316;0.092;2024-03-23T11:49:24;1.00;0.50;0.00
76784;PMS7003;66893;44.316;0.092;2024-03-23T11:51:50;1.00;1.00;0.50
76784;PMS7003;66893;44.316;0.092;2024-03-23T11:54:16;0.00;0.00;0.00
76784;PMS7003;66893;44.316;0.092;2024-03-23T11:56:57;0.00;0.00;0.00
76784;PMS7003;66893;44.316;0.092;2024-03-23T11:59:30;13.00;4.25;2.00
76784;PMS7003;66893;44.316;0.092;2024-03-23T12:01:55;7.50;7.50;4.00
76784;PMS7003;66893;44.316;0.092;2024-03-23T12:04:29;3.50;2.00;1.50
76784;PMS7003;66893;44.316;0.092;2024-03-23T12:09:39;5.00;1.75;1.00
76784;PMS7003;66893;44.316;0.092;2024-03-23T12:12:05;3.00;1.00;1.00
76784;PMS7003;66893;44.316;0.092;2024-03-23T12:14:31;1.00;1.00;1.00
76784;PMS7003;66893;44.316;0.092;2024-03-23T12:17:06;4.00;1.00;1.00
76784;PMS7003;66893;44.316;0.092;2024-03-23T12:19:32;0.50;0.00;0.00
76784;PMS7003;66893;44.316;0.092;2024-03-23T12:21:57;4.00;0.75;0.00
76784;PMS7003;66893;44.316;0.092;2024-03-23T12:24:22;4.25;1.75;1.00
76784;PMS7003;66893;44.316;0.092;2024-03-23T12:26:48;1.25;1.00;1.00
76784;PMS7003;66893;44.316;0.092;2024-03-23T12:29:15;1.00;0.00;0.00
76784;PMS7003;66893;44.316;0.092;2024-03-23T12:31:40;2.75;1.00;0.50
76784;PMS7003;66893;44.316;0.092;2024-03-23T12:34:06;3.00;1.00;1.00
76784;PMS7003;66893;44.316;0.092;2024-03-23T12:36:31;2.50;1.00;0.00
76784;PMS7003;66893;44.316;0.092;2024-03-23T12:38:56;2.50;1.25;0.25
76784;PMS7003;66893;44.316;0.092;2024-03-23T12:41:22;2.00;0.00;0.00
76784;PMS7003;66893;44.316;0.092;2024-03-23T12:43:48;2.00;1.00;0.00
76784;PMS7003;66893;44.316;0.092;2024-03-23T12:46:14;3.00;0.75;0.00
76784;PMS7003;66893;44.316;0.092;2024-03-23T12:48:39;1.00;0.50;0.50
76784;PMS7003;66893;44.316;0.092;2024-03-23T12:51:04;1.00;1.00;1.00
76784;PMS7003;66893;44.316;0.092;2024-03-23T12:53:30;2.50;0.50;0.00
76784;PMS7003;66893;44.316;0.092;2024-03-23T12:55:55;2.00;1.00;0.50
76784;PMS7003;66893;44.316;0.092;2024-03-23T12:58:22;1.75;1.00;0.50
76784;PMS7003;66893;44.316;0.092;2024-03-23T13:00:47;0.25;0.00;0.00
76784;PMS7003;66893;44.316;0.092;2024-03-23T13:03:13;2.75;2.00;1.00
76784;PMS7003;66893;44.316;0.092;2024-03-23T13:05:38;1.25;1.25;0.75
76784;PMS7003;66893;44.316;0.092;2024-03-23T13:08:05;1.00;1.00;0.00
76784;PMS7003;66893;44.316;0.092;2024-03-23T13:10:30;2.00;0.00;0.00
76784;PMS7003;66893;44.316;0.092;2024-03-23T13:12:56;0.25;0.00;0.00
76784;PMS7003;66893;44.316;0.092;2024-03-23T13:15:21;1.50;0.50;0.25
76784;PMS7003;66893;44.316;0.092;2024-03-23T13:17:49;0.25;0.00;0.00
76784;PMS7003;66893;44.316;0.092;2024-03-23T13:20:15;2.00;0.00;0.00
76784;PMS7003;66893;44.316;0.092;2024-03-23T13:22:41;0.00;0.00;0.00
76784;PMS7003;66893;44.316;0.092;2024-03-23T13:25:07;0.25;0.25;0.25
76784;PMS7003;66893;44.316;0.092;2024-03-23T13:27:32;0.00;0.00;0.00
76784;PMS7003;66893;44.316;0.092;2024-03-23T13:29:57;0.00;0.00;0.00
76784;PMS7003;66893;44.316;0.092;2024-03-23T13:32:23;0.00;0.00;0.00
76784;PMS7003;66893;44.316;0.092;2024-03-23T13:34:48;0.25;0.25;0.00
76784;PMS7003;66893;44.316;0.092;2024-03-23T13:37:15;1.00;1.00;0.50
76784;PMS7003;66893;44.316;0.092;2024-03-23T13:39:40;1.50;1.50;1.00
76784;PMS7003;66893;44.316;0.092;2024-03-23T13:42:07;3.75;1.00;0.75
76784;PMS7003;66893;44.316;0.092;2024-03-23T13:44:34;0.00;0.00;0.00
76784;PMS7003;66893;44.316;0.092;2024-03-23T13:46:59;0.75;0.75;0.00
76784;PMS7003;66893;44.316;0.092;2024-03-23T13:49:25;0.25;0.25;0.00
76784;PMS7003;66893;44.316;0.092;2024-03-23T13:51:52;0.00;0.00;0.00
76784;PMS7003;66893;44.316;0.092;2024-03-23T13:54:17;0.00;0.00;0.00
76784;PMS7003;66893;44.316;0.092;2024-03-23T13:56:43;0.00;0.00;0.00
76784;PMS7003;66893;44.316;0.092;2024-03-23T13:59:09;0.00;0.00;0.00
76784;PMS7003;66893;44.316;0.092;2024-03-23T14:01:35;0.75;0.00;0.00
76784;PMS7003;66893;44.316;0.092;2024-03-23T14:04:00;0.00;0.00;0.00
76784;PMS7003;66893;44.316;0.092;2024-03-23T14:06:25;2.00;1.00;0.00
76784;PMS7003;66893;44.316;0.092;2024-03-23T14:08:50;1.50;0.25;0.25
76784;PMS7003;66893;44.316;0.092;2024-03-23T14:11:17;0.00;0.00;0.00
76784;PMS7003;66893;44.316;0.092;2024-03-23T14:13:43;0.00;0.00;0.00
76784;PMS7003;66893;44.316;0.092;2024-03-23T14:16:08;0.00;0.00;0.00
76784;PMS7003;66893;44.316;0.092;2024-03-23T14:18:33;2.00;0.00;0.00
76784;PMS7003;66893;44.316;0.092;2024-03-23T14:20:59;0.25;0.25;0.00
76784;PMS7003;66893;44.316;0.092;2024-03-23T14:23:26;2.00;0.00;0.00
76784;PMS7003;66893;44.316;0.092;2024-03-23T14:25:54;3.50;2.00;1.00
76784;PMS7003;66893;44.316;0.092;2024-03-23T14:28:20;4.25;3.00;2.00
76784;PMS7003;66893;44.316;0.092;2024-03-23T14:30:45;3.25;2.75;1.75
76784;PMS7003;66893;44.316;0.092;2024-03-23T14:33:11;1.50;0.25;0.25
76784;PMS7003;66893;44.316;0.092;2024-03-23T14:35:37;1.75;0.00;0.00
76784;PMS7003;66893;44.316;0.092;2024-03-23T14:38:03;0.00;0.00;0.00
76784;PMS7003;66893;44.316;0.092;2024-03-23T14:40:28;0.50;0.00;0.00
76784;PMS7003;66893;44.316;0.092;2024-03-23T14:42:54;1.00;1.00;1.00
76784;PMS7003;66893;44.316;0.092;2024-03-23T14:45:20;2.75;0.00;0.00
76784;PMS7003;66893;44.316;0.092;2024-03-23T14:47:45;0.00;0.00;0.00
76784;PMS7003;66893;44.316;0.092;2024-03-23T14:50:11;2.00;0.75;0.25
76784;PMS7003;66893;44.316;0.092;2024-03-23T14:52:40;0.75;0.75;0.00
76784;PMS7003;66893;44.316;0.092;2024-03-23T14:55:05;0.00;0.00;0.00
76784;PMS7003;66893;44.316;0.092;2024-03-23T14:57:33;0.75;0.75;0.00
76784;PMS7003;66893;44.316;0.092;2024-03-23T14:59:59;1.00;1.00;0.00
76784;PMS7003;66893;44.316;0.092;2024-03-23T15:02:24;1.75;1.75;0.75
76784;PMS7003;66893;44.316;0.092;2024-03-23T15:04:49;1.00;1.00;0.00
76784;PMS7003;66893;44.316;0.092;2024-03-23T15:07:14;0.75;0.00;0.00
76784;PMS7003;66893;44.316;0.092;2024-03-23T15:09:41;0.00;0.00;0.00
76784;PMS7003;66893;44.316;0.092;2024-03-23T15:12:06;2.00;0.00;0.00
76784;PMS7003;66893;44.316;0.092;2024-03-23T15:14:32;1.00;1.00;1.00
76784;PMS7003;66893;44.316;0.092;2024-03-23T15:16:59;1.00;1.00;0.75
76784;PMS7003;66893;44.316;0.092;2024-03-23T15:19:25;0.25;0.25;0.00